Ambler, PA (19002)

10:03 AM EST on December 05, 2016 (GMT -0500)
Greystone | | Change Station

Elev 206 ft 40.15 °N, 75.24 °W | Updated 3 minutes ago

Overcast
Overcast
41.7 °F
Feels Like 42 °F
N
0.0
Wind Variable Wind from WNW
Gusts 0.0 mph

Today
High -- | Low -- °F
--% Chance of Precip.
Yesterday
High -- | Low -- °F
Precip. -- in
Pressure 30.02 in
Visibility 7.0 miles
Clouds Overcast 600 ft
Windchill 42 °F
Dew Point 41 °F
Humidity 97%
Rainfall 0.15 in
Snow Depth Not available.
7:08 AM 4:35 PM
Waxing Crescent, 32% visible
METAR KLOM 051455Z AUTO 26003KT 7SM OVC006 05/04 A3002 RMK AO1
Pressure 30.02 in
Visibility 7.0 miles
Clouds Overcast 600 ft
Windchill 42 °F
Dew Point 41 °F
Humidity 97%
Rainfall 0.15 in
Snow Depth Not available.
7:08 AM 4:35 PM
Waxing Crescent, 32% visible
METAR KLOM 051455Z AUTO 26003KT 7SM OVC006 05/04 A3002 RMK AO1

10-Day Weather Forecast

Almanac

Astronomy

Dec. 05, 2016 Rise Set
Actual Time
Civil Twilight
Nautical Twilight
Astronomical Twilight
Moon
Length of Visible Light
Length of Day
Tomorrow will be .
, % of the Moon is Illuminated

Today's Extremes

State Highs State Lows

Community

WunderPhotos

Upload Photos

1,955,787 photos uploaded!

WunderBlog® & News

Nearby

Air Quality

  Air Quality AQ Index Pollutant
Not available.

Snow Depth

Station Depth Elevation

Earthquake Activity

City Distance Mag. Time & Date
Minimum magnitude displayed is 2.5.

Coastal Water Temperatures

Place Temperature

Stations

Nearby Weather Stations

Station Location Temp. Windchill Dew Point Humidity Wind Precip. Elev Updated Type
                   

Watches & Warnings

There are currently no watches in effect.